Latest Weather Observations for Norseman Airport

IDW60801

Issued at 7:35 am WST Saturday 1 November 2014 (issued every 30 minutes, with the page automatically refreshed every 10 minutes)

About weather observations | Map of weather stations | Latest weather observations for WA | Other Formats
Station Details ID: 012009 Name: NORSEMAN AERO Lat: -32.21 Lon: 121.75 Height: 262.5 m
Data from the previous 72 hours. | See also: Recent months at Norseman Airport
Date/Time
WST
Temp
°C
App
Temp
°C
Dew
Point
Rel
Hum
%
Delta-T
°C
Wind Press
QNH
hPa
Press
MSL
hPa
Rain
since 9 am
mm
Dir
 
Spd
km/h
Gust
km/h
Spd
kts
Gust
kts
01/07:30am 13.4 9.2 5.8 60 3.6 NE 17 24 9 13 1023.3 1022.7 0.0
01/07:00am 11.1 8.5 6.0 71 2.4 N 9 13 5 7 1023.3 1022.7 0.0
01/06:30am 9.4 7.0 5.4 76 1.8 N 7 11 4 6 1023.0 1022.5 0.0
01/06:00am 8.1 5.4 5.6 84 1.1 NNE 9 11 5 6 1022.6 1022.1 0.0
01/05:30am 6.6 5.1 5.1 90 0.7 N 2 9 1 5 1022.1 1021.6 0.0
01/05:00am 5.8 3.4 4.3 90 0.6 ENE 6 9 3 5 1021.9 1021.4 0.0
01/04:30am 6.1 4.9 4.7 91 0.6 CALM 0 0 0 0 1021.2 1020.7 0.0
01/04:00am 5.6 4.3 3.9 89 0.7 CALM 0 0 0 0 1021.1 1020.6 0.0
01/03:30am 5.3 2.7 3.3 87 0.8 ENE 6 7 3 4 1020.9 1020.4 0.0
01/03:00am 6.2 3.7 4.0 86 0.9 SSE 6 6 3 3 1020.9 1020.4 0.0
01/02:30am 6.3 3.6 3.8 84 1.1 WSW 7 9 4 5 1021.3 1020.8 0.0
01/02:00am 7.3 4.9 4.3 81 1.3 SSE 6 7 3 4 1020.8 1020.2 0.0
01/01:30am 7.8 5.2 4.2 78 1.6 SSW 7 9 4 5 1020.9 1020.4 0.0
01/01:00am 8.4 5.4 4.0 74 1.9 SW 9 11 5 6 1020.6 1020.0 0.0
01/12:30am 9.8 6.9 4.6 70 2.3 S 9 15 5 8 1020.5 1019.9 0.0
01/12:00am 10.3 6.7 4.9 69 2.5 S 13 20 7 11 1020.7 1020.1 0.0
 
Date/Time
WST
Temp
°C
App
Temp
°C
Dew
Point
Rel
Hum
%
Delta-T
°C
Wind Press
QNH
hPa
Press
MSL
hPa
Rain
since 9 am
mm
Dir
 
Spd
km/h
Gust
km/h
Spd
kts
Gust
kts
31/11:30pm 11.3 7.4 5.2 66 2.8 SSE 15 20 8 11 1020.8 1020.2 0.0
31/11:00pm 11.4 8.2 5.1 65 2.9 S 11 20 6 11 1020.9 1020.4 0.0
31/10:30pm 11.9 9.1 5.1 63 3.2 S 9 13 5 7 1021.1 1020.6 0.0
31/10:00pm 12.4 8.1 5.1 61 3.4 SSE 17 22 9 12 1021.0 1020.5 0.0
31/09:30pm 12.9 7.7 5.3 60 3.6 SSE 22 32 12 17 1020.7 1020.1 0.0
31/09:00pm 13.7 8.5 5.6 58 3.9 SSE 22 32 12 17 1020.5 1019.9 0.0
31/08:30pm 14.5 9.8 5.0 53 4.5 SSE 19 26 10 14 1020.3 1019.7 0.0
31/08:00pm 15.1 9.5 5.3 52 4.7 S 24 41 13 22 1019.8 1019.2 0.0
31/07:30pm 15.9 10.6 4.9 48 5.3 SSE 22 35 12 19 1019.3 1018.7 0.0
31/07:00pm 16.9 12.1 4.9 45 5.8 SSE 19 28 10 15 1018.9 1018.4 0.0
31/06:30pm 17.5 12.5 4.8 43 6.1 SSE 20 30 11 16 1018.2 1017.7 0.0
31/06:00pm 18.5 13.6 4.3 39 6.8 SSE 19 28 10 15 1017.6 1017.1 0.0
31/05:30pm 19.3 13.9 4.3 37 7.3 SE 22 32 12 17 1016.9 1016.3 0.0
31/05:00pm 19.9 13.7 4.4 36 7.6 SE 26 37 14 20 1016.5 1015.9 0.0
31/04:30pm 20.4 13.9 4.8 36 7.7 SE 28 37 15 20 1016.0 1015.4 0.0
31/04:00pm 21.0 15.2 4.6 34 8.1 SE 24 32 13 17 1015.6 1015.0 0.0
31/03:30pm 21.3 15.3 3.5 31 8.6 SE 24 33 13 18 1015.2 1014.6 0.0
31/03:00pm 22.6 17.3 5.1 32 8.8 S 22 41 12 22 1014.9 1014.4 0.0
31/02:30pm 21.6 15.8 4.2 32 8.6 S 24 37 13 20 1014.7 1014.2 0.0
31/02:00pm 21.6 16.6 4.7 33 8.4 SSE 20 30 11 16 1014.7 1014.2 0.0
31/01:30pm 21.3 15.5 4.4 33 8.3 S 24 35 13 19 1014.8 1014.3 0.0
31/01:05pm 21.8 15.3 4.8 33 8.5 S 28 46 15 25 1014.7 1014.2 0.0
31/01:00pm 21.2 15.2 5.1 35 8.0 S 26 33 14 18 1014.6 1014.1 0.0
31/12:30pm 21.0 15.4 7.3 41 7.1 SSW 26 35 14 19 1014.7 1014.2 0.0
31/12:00pm 20.7 16.2 8.7 46 6.4 S 22 30 12 16 1014.8 1014.3 0.0
31/11:30am 19.3 14.2 9.2 52 5.4 S 26 39 14 21 1014.9 1014.4 0.0
31/11:00am 18.6 13.3 9.7 56 4.8 S 28 39 15 21 1014.9 1014.4 0.0
31/10:30am 18.2 13.6 9.8 58 4.5 SSW 24 37 13 20 1014.9 1014.4 0.0
31/10:00am 17.8 11.7 9.9 60 4.2 SSW 32 44 17 24 1014.7 1014.2 0.0
31/09:30am 15.8 11.4 11.8 77 2.2 SSW 26 35 14 19 1014.6 1014.1 0.0
31/09:13am 15.3 10.3 11.1 76 2.3 S 28 48 15 26 1014.4 1013.9 0.0
31/09:00am 15.1 10.8 12.2 83 1.6 SSW 26 41 14 22 1014.2 1013.6 0.0
31/08:30am 17.5 12.3 10.4 63 3.8 SSW 28 35 15 19 1013.6 1013.0 0.0
31/08:00am 16.9 11.7 10.3 65 3.5 SW 28 37 15 20 1013.4 1012.8 0.0
31/07:30am 16.8 12.9 10.9 68 3.2 SW 22 35 12 19 1013.2 1012.6 0.0
31/07:00am 16.2 13.5 11.8 75 2.4 WSW 17 20 9 11 1013.1 1012.5 0.0
31/06:30am 15.2 12.9 11.8 80 1.9 WSW 15 19 8 10 1013.1 1012.5 0.0
31/06:00am 14.9 13.3 11.7 81 1.7 WSW 11 15 6 8 1012.7 1012.1 0.0
31/05:30am 14.7 12.3 11.5 81 1.7 WSW 15 17 8 9 1012.3 1011.7 0.0
31/05:00am 14.7 13.1 11.7 82 1.6 SW 11 15 6 8 1011.9 1011.3 0.0
31/04:30am 14.7 13.1 11.7 82 1.6 SSW 11 13 6 7 1011.6 1011.0 0.0
31/04:00am 14.7 12.7 11.5 81 1.7 S 13 17 7 9 1011.3 1010.7 0.0
31/03:30am 14.7 11.9 11.5 81 1.7 SSW 17 24 9 13 1011.3 1010.7 0.0
31/03:00am 14.7 11.9 11.3 80 1.8 S 17 24 9 13 1010.9 1010.3 0.0
31/02:30am 14.5 13.2 11.3 81 1.7 S 9 13 5 7 1010.7 1010.1 0.0
31/02:00am 14.1 12.3 10.9 81 1.7 S 11 17 6 9 1010.6 1010.0 0.0
31/01:30am 14.6 12.5 11.0 79 1.9 S 13 20 7 11 1010.6 1010.0 0.0
31/01:00am 15.1 11.8 10.9 76 2.3 S 19 26 10 14 1010.7 1010.1 0.0
31/12:30am 15.5 12.5 10.7 73 2.6 S 17 24 9 13 1010.4 1009.8 0.0
31/12:00am 16.0 13.1 11.0 72 2.7 S 17 24 9 13 1010.4 1009.8 0.0
 
Date/Time
WST
Temp
°C
App
Temp
°C
Dew
Point
Rel
Hum
%
Delta-T
°C
Wind Press
QNH
hPa
Press
MSL
hPa
Rain
since 9 am
mm
Dir
 
Spd
km/h
Gust
km/h
Spd
kts
Gust
kts
30/11:30pm 16.9 14.4 12.2 74 2.6 S 17 26 9 14 1010.2 1009.6 0.0
30/11:00pm 17.4 15.0 12.7 74 2.7 S 17 28 9 15 1009.9 1009.3 0.0
30/10:30pm 18.2 15.4 13.3 73 2.8 S 20 28 11 15 1009.4 1008.8 0.0
30/10:00pm 19.6 17.6 13.8 69 3.4 S 17 24 9 13 1009.0 1008.4 0.0
30/09:30pm 20.7 19.1 13.9 65 4.0 S 15 22 8 12 1008.8 1008.2 0.0
30/09:00pm 21.6 20.0 14.0 62 4.5 S 15 20 8 11 1008.7 1008.1 0.0
30/08:30pm 22.8 20.6 14.4 59 5.0 S 19 32 10 17 1008.1 1007.5 0.0
30/08:00pm 24.6 22.8 14.4 53 6.1 SSW 17 22 9 12 1007.7 1007.0 0.0
30/07:30pm 23.5 22.9 13.4 53 5.9 S 9 13 5 7 1007.0 1006.4 0.0
30/07:00pm 25.3 24.6 13.2 47 7.2 S 9 9 5 5 1006.9 1006.3 0.0
30/06:30pm 26.4 25.7 13.2 44 7.8 SE 9 13 5 7 1006.6 1006.0 0.0
30/06:00pm 27.6 25.6 12.8 40 8.8 SSE 15 20 8 11 1006.4 1005.8 0.0
30/05:30pm 29.1 26.8 12.9 37 9.7 S 17 24 9 13 1006.2 1005.6 0.0
30/05:00pm 29.0 26.2 13.2 37 9.5 S 20 32 11 17 1005.9 1005.3 0.0
30/04:30pm 29.9 27.7 13.2 36 10.0 SSE 17 26 9 14 1005.6 1005.0 0.0
30/04:00pm 30.2 29.1 13.0 34 10.3 SSE 11 19 6 10 1005.8 1005.2 0.0
30/03:30pm 30.7 29.6 13.0 33 10.6 SW 11 17 6 9 1006.1 1005.5 0.0
30/03:00pm 31.3 30.2 13.1 33 11.0 S 11 17 6 9 1006.4 1005.8 0.0
30/02:30pm 30.8 29.5 13.6 35 10.4 S 13 20 7 11 1006.7 1006.1 0.0
30/02:00pm 29.8 27.8 14.0 38 9.6 S 17 28 9 15 1007.3 1006.6 0.0
30/01:30pm 29.7 27.6 13.5 37 9.8 SSW 17 24 9 13 1007.6 1006.9 0.0
30/01:00pm 29.0 27.2 13.2 37 9.5 SSE 15 24 8 13 1008.1 1007.5 0.0
30/12:30pm 28.6 26.3 12.9 38 9.3 S 17 28 9 15 1008.7 1008.1 0.0
30/12:00pm 27.5 26.9 13.4 41 8.4 W 9 13 5 7 1009.3 1008.7 0.0
30/11:30am 26.5 26.2 13.3 44 7.8 W 7 9 4 5 1009.6 1009.0 0.0
30/11:00am 24.7 24.1 14.5 53 6.1 W 11 17 6 9 1009.9 1009.3 0.0
30/10:30am 23.7 23.2 14.9 57 5.3 WSW 11 19 6 10 1010.5 1009.9 0.0
30/10:00am 21.5 20.9 14.6 65 4.1 WSW 11 20 6 11 1011.5 1010.9 0.0
30/09:30am 20.5 20.3 14.6 69 3.5 SW 9 15 5 8 1011.9 1011.3 0.0
30/09:00am 18.6 18.5 14.9 79 2.2 NW 9 13 5 7 1012.2 1011.6 0.4
30/08:30am 18.1 18.4 14.4 79 2.2 SE 6 11 3 6 1012.4 1011.8 0.4
30/08:00am 16.9 17.1 14.2 84 1.6 SSE 6 11 3 6 1012.8 1012.2 0.4
30/07:30am 16.3 16.6 14.5 89 1.0 NW 6 9 3 5 1013.0 1012.4 0.4
30/07:00am 15.9 13.7 14.3 90 0.9 W 19 26 10 14 1013.9 1013.3 0.2
30/06:30am 15.5 15.2 14.4 93 0.6 S 9 15 5 8 1012.5 1011.9 0.2
30/06:00am 15.2 13.6 13.9 92 0.7 SE 15 20 8 11 1012.7 1012.1 0.2
30/05:30am 15.8 15.2 13.5 86 1.3 S 9 15 5 8 1013.7 1013.1 0.0
30/05:00am 15.8 13.3 13.6 87 1.2 W 19 22 10 12 1014.2 1013.6 0.0
30/04:30am 15.8 12.8 13.8 88 1.1 WSW 22 32 12 17 1013.7 1013.1 0.0
30/04:00am 15.6 15.7 13.8 89 1.0 S 6 - 3 - - 1011.1 -
30/03:30am 15.6 15.0 13.6 88 1.1 SE 9 15 5 8 1011.6 1011.0 0.0
30/03:00am 15.9 15.7 13.7 87 1.3 S 7 11 4 6 1012.2 1011.6 0.0
30/02:30am 15.9 13.0 13.9 88 1.1 SSW 22 28 12 15 1012.3 1011.7 0.0
30/02:00am 15.9 13.4 14.1 89 1.0 SSW 20 28 11 15 1012.5 1011.9 0.0
30/01:30am 16.0 14.2 14.4 90 0.9 SSW 17 28 9 15 1012.2 1011.6 0.0
30/01:00am 16.0 14.3 14.7 92 0.8 SSW 17 26 9 14 1011.9 1011.3 0.0
30/12:30am 16.1 14.4 14.8 92 0.8 SSW 17 22 9 12 1012.3 1011.7 0.0
30/12:00am 16.1 14.2 14.3 89 1.0 SSW 17 22 9 12 1012.2 1011.6 0.0
 
Date/Time
WST
Temp
°C
App
Temp
°C
Dew
Point
Rel
Hum
%
Delta-T
°C
Wind Press
QNH
hPa
Press
MSL
hPa
Rain
since 9 am
mm
Dir
 
Spd
km/h
Gust
km/h
Spd
kts
Gust
kts
29/11:30pm 16.4 15.2 14.1 86 1.3 SSW 13 17 7 9 1012.6 1012.0 0.0
29/11:00pm 17.2 16.2 14.5 84 1.6 SSW 13 17 7 9 1012.1 1011.5 0.0
29/10:30pm 17.6 16.8 13.9 79 2.1 SSW 11 13 6 7 1012.1 1011.5 0.0
29/10:00pm 18.8 17.6 14.1 74 2.7 S 13 22 7 12 1012.0 1011.4 0.0
29/09:30pm 19.4 18.1 13.8 70 3.2 S 13 17 7 9 1012.8 1012.2 0.0
29/09:00pm 19.9 19.0 13.6 67 3.7 S 11 15 6 8 1013.2 1012.6 0.0
29/08:30pm 20.7 19.4 13.6 64 4.1 S 13 20 7 11 1012.9 1012.3 0.0
29/08:00pm 21.4 19.3 13.6 61 4.6 SSE 17 19 9 10 1012.9 1012.3 0.0
29/07:30pm 21.7 19.1 13.3 59 4.9 S 19 30 10 16 1013.1 1012.5 0.0
29/07:00pm 22.7 20.3 12.6 53 5.8 SSW 17 24 9 13 1012.4 1011.8 0.0
29/06:30pm 23.6 21.1 12.3 49 6.5 S 17 32 9 17 1012.0 1011.4 0.0
29/06:00pm 24.3 20.7 11.9 45 7.1 SSW 22 32 12 17 1011.5 1010.9 0.0
29/05:30pm 25.2 21.7 12.1 44 7.6 S 22 32 12 17 1011.0 1010.5 0.0
29/05:00pm 26.5 22.0 12.5 41 8.2 S 28 44 15 24 1010.3 1009.7 0.0
29/04:30pm 30.9 27.2 10.3 28 11.9 SSW 20 39 11 21 1009.6 1009.0 0.0
29/04:00pm 31.8 30.6 11.6 29 12.0 N 9 11 5 6 1009.2 1008.6 0.0
29/03:30pm 32.3 29.3 9.2 24 13.2 N 15 17 8 9 1009.1 1008.5 0.0
29/03:00pm 33.3 28.9 6.6 19 14.7 N 19 22 10 12 1009.0 1008.4 0.0
29/02:30pm 34.4 30.0 6.7 18 15.3 NNE 19 24 10 13 1009.3 1008.7 0.0
29/02:00pm 32.4 28.4 6.6 20 14.1 N 17 22 9 12 1009.8 1009.2 0.0
29/01:30pm 32.5 27.8 5.9 19 14.4 NNE 20 26 11 14 1010.3 1009.7 0.0
29/01:00pm 32.3 27.1 5.7 19 14.4 NNE 22 28 12 15 1010.7 1010.1 0.0
29/12:30pm 31.9 27.4 6.2 20 13.9 N 19 24 10 13 1011.2 1010.6 0.0
29/12:00pm 31.3 25.8 5.7 20 13.7 N 24 32 13 17 1011.5 1010.9 0.0
29/11:30am 30.8 24.9 6.0 21 13.3 N 26 32 14 17 1011.9 1011.3 0.0
29/11:00am 30.9 26.3 6.7 22 13.2 N 20 26 11 14 1012.4 1011.8 0.0
29/10:30am 28.5 23.2 6.6 25 11.7 N 24 30 13 16 1013.0 1012.4 0.0
29/10:00am 27.2 21.2 5.5 25 11.3 N 26 32 14 17 1013.4 1012.8 0.0
29/09:30am 27.4 20.3 5.6 25 11.4 N 32 43 17 23 1013.8 1013.2 0.0
29/09:00am 26.0 18.6 5.0 26 10.8 N 33 41 18 22 1013.8 1013.2 0.0
29/08:30am 24.5 18.8 6.7 32 9.3 N 26 32 14 17 1013.9 1013.3 0.0
29/08:00am 23.4 17.5 7.5 36 8.4 N 28 35 15 19 1013.8 1013.2 0.0

Other Formats:

Comma delimited format used in spreadsheet applications
http://www.bom.gov.au/fwo/IDW60801/IDW60801.95642.axf

JavaScript Object Notation format (JSON) in row-major order
http://www.bom.gov.au/fwo/IDW60801/IDW60801.95642.json